Grace Hill, Iowa
Current Conditions -  °F | °C
As of 1:55 PM on Monday 24 Nov 2014 (Local Time) from KAWG Reporting Station
Overcast Overcast  
Wind Chill: 13°   Ceiling: 1900
Heat Index: 27°   Visibility: 9mi
Dew Point: 27°   Wind: 21mph
Humidity: 100%   Direction: 280°W
Pressure: 29.64"   Gusts: 33mph
Location:  41.3124°N, 91.7455°W
Report Text: KAWG 241955Z AUTO 28018G29KT 9SM OVC019 M03/M03 A2964 RMK AO2
Loading
Personal Weather Stations






























Interactive Weather Map New forecast layout! Learn more

10-Day Weather Forecast

Advertisements
Track Severe Weather on mobile